OVO0649 ZULS-ZSPD
Flight info
| Callsign | OVO0649 |
|---|---|
| Flight time | N/A |
| Altitude | 38100 |
| Route | DUMIX W9 BIGOR L888 UPGED W162 BUBSU W146 GULOT A599 SGM A581 WHA R343 SASAN |
| Aircraft | A306/M-SDE2E3GHIJ3J4J5LM1ORWXY/LB1 |
Departure
| Time | 2026-04-13 11:50 |
|---|---|
| Airport | Lhasa Gonggar International Airport (ZULS) |
Arrival
| Time | N/A |
|---|---|
| Airport | Shanghai Pudong International Airport (ZSPD) |
| Time | Latitude | Longitude | Altitude | Speed | Heading |
|---|---|---|---|---|---|
| 2026-04-13 10:51 | 29.29394 | 90.89579 | 11930 ft | 0 kts | 180° |
| 2026-04-13 11:40 | 29.29400 | 90.89579 | 11931 ft | 2 kts | 180° |
| 2026-04-13 11:40 | 29.29415 | 90.89579 | 11930 ft | 2 kts | 180° |
| 2026-04-13 11:41 | 29.29430 | 90.89580 | 11929 ft | 2 kts | 200° |
| 2026-04-13 11:41 | 29.29444 | 90.89589 | 11929 ft | 2 kts | 220° |
| 2026-04-13 11:41 | 29.29453 | 90.89602 | 11928 ft | 2 kts | 240° |
| 2026-04-13 11:41 | 29.29459 | 90.89617 | 11928 ft | 2 kts | 260° |
| 2026-04-13 11:42 | 29.29460 | 90.89627 | 11929 ft | 1 kts | 271° |
| 2026-04-13 11:42 | 29.29460 | 90.89631 | 11930 ft | 0 kts | 271° |
| 2026-04-13 11:46 | 29.29460 | 90.89624 | 11932 ft | 2 kts | 270° |
| 2026-04-13 11:46 | 29.29461 | 90.89578 | 11932 ft | 8 kts | 271° |
| 2026-04-13 11:46 | 29.29461 | 90.89497 | 11932 ft | 11 kts | 270° |
| 2026-04-13 11:47 | 29.29462 | 90.89394 | 11932 ft | 13 kts | 270° |
| 2026-04-13 11:47 | 29.29466 | 90.89287 | 11933 ft | 12 kts | 282° |
| 2026-04-13 11:47 | 29.29514 | 90.89220 | 11933 ft | 10 kts | 329° |
| 2026-04-13 11:47 | 29.29590 | 90.89195 | 11932 ft | 12 kts | 353° |
| 2026-04-13 11:48 | 29.29690 | 90.89191 | 11931 ft | 15 kts | 1° |
| 2026-04-13 11:48 | 29.29807 | 90.89193 | 11931 ft | 18 kts | 0° |
| 2026-04-13 11:48 | 29.29942 | 90.89191 | 11930 ft | 20 kts | 359° |
| 2026-04-13 11:48 | 29.30094 | 90.89205 | 11928 ft | 23 kts | 33° |
| 2026-04-13 11:49 | 29.30127 | 90.89273 | 11927 ft | 0 kts | 85° |
| 2026-04-13 11:49 | 29.30133 | 90.89435 | 11926 ft | 49 kts | 89° |
| 2026-04-13 11:49 | 29.30144 | 90.90105 | 11925 ft | 116 kts | 90° |
| 2026-04-13 11:49 | 29.30159 | 90.91273 | 11918 ft | 174 kts | 90° |
| 2026-04-13 11:50 | 29.30187 | 90.92851 | 11930 ft | 217 kts | 88° |
| 2026-04-13 11:50 | 29.30254 | 90.94638 | 12036 ft | 232 kts | 84° |
| 2026-04-13 11:50 | 29.30283 | 90.96542 | 12351 ft | 248 kts | 89° |
| 2026-04-13 11:50 | 29.30277 | 90.98628 | 12361 ft | 269 kts | 89° |
| 2026-04-13 11:51 | 29.30247 | 91.00715 | 12340 ft | 254 kts | 90° |
| 2026-04-13 11:51 | 29.30225 | 91.02662 | 12321 ft | 239 kts | 89° |
| 2026-04-13 11:51 | 29.30175 | 91.04576 | 12322 ft | 243 kts | 92° |
| 2026-04-13 11:51 | 29.30043 | 91.06527 | 12334 ft | 247 kts | 94° |
| 2026-04-13 11:52 | 29.29986 | 91.07376 | 12346 ft | 247 kts | 93° |